sensor_id;sensor_type;location;lat;lon;timestamp;P1;durP1;ratioP1;P2;durP2;ratioP2
2009;SDS011;1008;47.404;8.502;2022-09-12T00:02:22;2.23;;;1.97;;
2009;SDS011;1008;47.404;8.502;2022-09-12T00:04:49;3.90;;;2.07;;
2009;SDS011;1008;47.404;8.502;2022-09-12T00:07:16;1.80;;;1.60;;
2009;SDS011;1008;47.404;8.502;2022-09-12T00:09:43;3.07;;;2.30;;
2009;SDS011;1008;47.404;8.502;2022-09-12T00:12:10;2.40;;;1.80;;
2009;SDS011;1008;47.404;8.502;2022-09-12T00:14:36;2.50;;;1.87;;
2009;SDS011;1008;47.404;8.502;2022-09-12T00:17:05;2.73;;;2.00;;
2009;SDS011;1008;47.404;8.502;2022-09-12T00:19:32;2.10;;;1.80;;
2009;SDS011;1008;47.404;8.502;2022-09-12T00:21:58;2.80;;;2.30;;
2009;SDS011;1008;47.404;8.502;2022-09-12T00:24:25;4.20;;;2.10;;
2009;SDS011;1008;47.404;8.502;2022-09-12T00:26:52;3.60;;;2.47;;
2009;SDS011;1008;47.404;8.502;2022-09-12T00:29:20;2.23;;;2.03;;
2009;SDS011;1008;47.404;8.502;2022-09-12T00:31:47;1.80;;;1.50;;
2009;SDS011;1008;47.404;8.502;2022-09-12T00:34:15;2.07;;;1.87;;
2009;SDS011;1008;47.404;8.502;2022-09-12T00:36:42;3.53;;;1.90;;
2009;SDS011;1008;47.404;8.502;2022-09-12T00:39:09;2.77;;;2.37;;
2009;SDS011;1008;47.404;8.502;2022-09-12T00:41:40;3.80;;;2.73;;
2009;SDS011;1008;47.404;8.502;2022-09-12T00:47:22;4.10;;;2.20;;
2009;SDS011;1008;47.404;8.502;2022-09-12T00:49:56;4.10;;;2.57;;
2009;SDS011;1008;47.404;8.502;2022-09-12T00:52:27;2.13;;;1.87;;
2009;SDS011;1008;47.404;8.502;2022-09-12T00:54:59;1.97;;;1.50;;
2009;SDS011;1008;47.404;8.502;2022-09-12T00:57:31;2.90;;;2.10;;
2009;SDS011;1008;47.404;8.502;2022-09-12T01:00:02;2.73;;;2.50;;
2009;SDS011;1008;47.404;8.502;2022-09-12T01:02:36;3.20;;;1.77;;
2009;SDS011;1008;47.404;8.502;2022-09-12T01:05:06;2.70;;;2.07;;
2009;SDS011;1008;47.404;8.502;2022-09-12T01:07:34;2.40;;;2.10;;
2009;SDS011;1008;47.404;8.502;2022-09-12T01:10:01;2.30;;;1.60;;
2009;SDS011;1008;47.404;8.502;2022-09-12T01:12:29;3.30;;;2.00;;
2009;SDS011;1008;47.404;8.502;2022-09-12T01:14:57;2.40;;;1.70;;
2009;SDS011;1008;47.404;8.502;2022-09-12T01:17:25;2.30;;;2.10;;
2009;SDS011;1008;47.404;8.502;2022-09-12T01:20:23;2.77;;;2.10;;
2009;SDS011;1008;47.404;8.502;2022-09-12T01:23:09;1.90;;;1.80;;
2009;SDS011;1008;47.404;8.502;2022-09-12T01:25:55;3.03;;;2.10;;
2009;SDS011;1008;47.404;8.502;2022-09-12T01:28:38;2.50;;;2.30;;
2009;SDS011;1008;47.404;8.502;2022-09-12T01:31:21;2.30;;;2.10;;
2009;SDS011;1008;47.404;8.502;2022-09-12T01:33:55;3.13;;;2.17;;
2009;SDS011;1008;47.404;8.502;2022-09-12T01:36:35;2.90;;;1.87;;
2009;SDS011;1008;47.404;8.502;2022-09-12T01:39:12;2.80;;;2.10;;
2009;SDS011;1008;47.404;8.502;2022-09-12T01:41:47;2.67;;;1.90;;
2009;SDS011;1008;47.404;8.502;2022-09-12T01:44:22;2.67;;;2.30;;
2009;SDS011;1008;47.404;8.502;2022-09-12T01:46:54;3.07;;;1.83;;
2009;SDS011;1008;47.404;8.502;2022-09-12T01:49:28;2.50;;;2.10;;
2009;SDS011;1008;47.404;8.502;2022-09-12T01:51:59;2.77;;;2.40;;
2009;SDS011;1008;47.404;8.502;2022-09-12T01:54:32;2.73;;;1.60;;
2009;SDS011;1008;47.404;8.502;2022-09-12T01:57:06;2.57;;;1.73;;
2009;SDS011;1008;47.404;8.502;2022-09-12T01:59:39;2.50;;;2.20;;
2009;SDS011;1008;47.404;8.502;2022-09-12T02:02:11;3.43;;;2.23;;
2009;SDS011;1008;47.404;8.502;2022-09-12T02:04:42;3.10;;;2.20;;
2009;SDS011;1008;47.404;8.502;2022-09-12T02:07:17;2.47;;;1.87;;
2009;SDS011;1008;47.404;8.502;2022-09-12T02:09:47;2.90;;;2.03;;
2009;SDS011;1008;47.404;8.502;2022-09-12T02:12:19;3.10;;;2.40;;
2009;SDS011;1008;47.404;8.502;2022-09-12T02:14:52;2.57;;;2.33;;
2009;SDS011;1008;47.404;8.502;2022-09-12T02:17:24;2.00;;;1.77;;
2009;SDS011;1008;47.404;8.502;2022-09-12T02:19:53;2.10;;;1.90;;
2009;SDS011;1008;47.404;8.502;2022-09-12T02:22:24;2.27;;;2.07;;
2009;SDS011;1008;47.404;8.502;2022-09-12T02:24:53;2.53;;;2.33;;
2009;SDS011;1008;47.404;8.502;2022-09-12T02:27:23;3.80;;;2.20;;
2009;SDS011;1008;47.404;8.502;2022-09-12T02:29:55;2.77;;;1.93;;
2009;SDS011;1008;47.404;8.502;2022-09-12T02:32:26;2.40;;;2.10;;
2009;SDS011;1008;47.404;8.502;2022-09-12T02:34:58;2.90;;;2.40;;
2009;SDS011;1008;47.404;8.502;2022-09-12T02:37:31;2.63;;;2.07;;
2009;SDS011;1008;47.404;8.502;2022-09-12T02:40:07;3.10;;;2.00;;
2009;SDS011;1008;47.404;8.502;2022-09-12T02:42:34;2.30;;;2.10;;
2009;SDS011;1008;47.404;8.502;2022-09-12T02:45:01;3.20;;;2.57;;
2009;SDS011;1008;47.404;8.502;2022-09-12T02:47:31;2.53;;;2.07;;
2009;SDS011;1008;47.404;8.502;2022-09-12T02:50:03;3.20;;;2.10;;
2009;SDS011;1008;47.404;8.502;2022-09-12T02:52:32;3.43;;;2.30;;
2009;SDS011;1008;47.404;8.502;2022-09-12T02:54:59;2.50;;;1.87;;
2009;SDS011;1008;47.404;8.502;2022-09-12T02:57:27;4.10;;;2.70;;
2009;SDS011;1008;47.404;8.502;2022-09-12T02:59:54;2.90;;;2.27;;
2009;SDS011;1008;47.404;8.502;2022-09-12T03:02:26;3.03;;;2.17;;
2009;SDS011;1008;47.404;8.502;2022-09-12T03:05:12;3.37;;;2.27;;
2009;SDS011;1008;47.404;8.502;2022-09-12T03:08:09;2.57;;;2.03;;
2009;SDS011;1008;47.404;8.502;2022-09-12T03:13:35;2.30;;;1.87;;
2009;SDS011;1008;47.404;8.502;2022-09-12T03:16:09;2.90;;;2.37;;
2009;SDS011;1008;47.404;8.502;2022-09-12T03:18:48;3.40;;;2.13;;
2009;SDS011;1008;47.404;8.502;2022-09-12T03:21:21;6.93;;;2.77;;
2009;SDS011;1008;47.404;8.502;2022-09-12T03:23:56;2.40;;;2.00;;
2009;SDS011;1008;47.404;8.502;2022-09-12T03:26:30;3.00;;;2.00;;
2009;SDS011;1008;47.404;8.502;2022-09-12T03:29:01;3.10;;;2.40;;
2009;SDS011;1008;47.404;8.502;2022-09-12T03:31:31;2.87;;;2.27;;
2009;SDS011;1008;47.404;8.502;2022-09-12T03:33:59;2.97;;;2.33;;
2009;SDS011;1008;47.404;8.502;2022-09-12T03:36:27;3.00;;;2.30;;
2009;SDS011;1008;47.404;8.502;2022-09-12T03:38:55;3.07;;;1.93;;
2009;SDS011;1008;47.404;8.502;2022-09-12T03:41:22;3.50;;;2.50;;
2009;SDS011;1008;47.404;8.502;2022-09-12T03:43:49;3.30;;;2.17;;
2009;SDS011;1008;47.404;8.502;2022-09-12T03:46:16;2.40;;;2.20;;
2009;SDS011;1008;47.404;8.502;2022-09-12T03:48:42;2.57;;;2.20;;
2009;SDS011;1008;47.404;8.502;2022-09-12T03:51:10;2.63;;;2.13;;
2009;SDS011;1008;47.404;8.502;2022-09-12T03:53:37;3.30;;;2.90;;
2009;SDS011;1008;47.404;8.502;2022-09-12T03:56:04;2.20;;;2.00;;
2009;SDS011;1008;47.404;8.502;2022-09-12T03:58:32;2.77;;;2.23;;
2009;SDS011;1008;47.404;8.502;2022-09-12T04:01:00;3.37;;;2.63;;
2009;SDS011;1008;47.404;8.502;2022-09-12T04:03:31;3.87;;;2.90;;
2009;SDS011;1008;47.404;8.502;2022-09-12T04:05:58;3.00;;;2.40;;
2009;SDS011;1008;47.404;8.502;2022-09-12T04:08:26;4.87;;;3.23;;
2009;SDS011;1008;47.404;8.502;2022-09-12T04:10:53;4.40;;;2.83;;
2009;SDS011;1008;47.404;8.502;2022-09-12T04:13:19;4.77;;;3.17;;
2009;SDS011;1008;47.404;8.502;2022-09-12T04:15:54;4.20;;;2.93;;
2009;SDS011;1008;47.404;8.502;2022-09-12T04:18:21;3.30;;;2.70;;
2009;SDS011;1008;47.404;8.502;2022-09-12T04:20:48;4.30;;;3.27;;
2009;SDS011;1008;47.404;8.502;2022-09-12T04:23:15;4.60;;;2.90;;
2009;SDS011;1008;47.404;8.502;2022-09-12T04:25:43;4.40;;;3.33;;
2009;SDS011;1008;47.404;8.502;2022-09-12T04:28:09;4.20;;;2.30;;
2009;SDS011;1008;47.404;8.502;2022-09-12T04:30:36;2.80;;;2.50;;
2009;SDS011;1008;47.404;8.502;2022-09-12T04:33:03;5.90;;;2.87;;
2009;SDS011;1008;47.404;8.502;2022-09-12T04:35:30;4.87;;;3.70;;
2009;SDS011;1008;47.404;8.502;2022-09-12T04:37:59;7.10;;;3.00;;
2009;SDS011;1008;47.404;8.502;2022-09-12T04:40:27;4.10;;;3.20;;
2009;SDS011;1008;47.404;8.502;2022-09-12T04:42:56;4.37;;;2.77;;
2009;SDS011;1008;47.404;8.502;2022-09-12T04:45:23;3.37;;;2.63;;
2009;SDS011;1008;47.404;8.502;2022-09-12T04:47:50;3.10;;;2.37;;
2009;SDS011;1008;47.404;8.502;2022-09-12T04:50:17;4.43;;;3.20;;
2009;SDS011;1008;47.404;8.502;2022-09-12T04:52:47;4.90;;;3.37;;
2009;SDS011;1008;47.404;8.502;2022-09-12T04:55:15;4.90;;;3.13;;
2009;SDS011;1008;47.404;8.502;2022-09-12T04:57:42;5.07;;;3.50;;
2009;SDS011;1008;47.404;8.502;2022-09-12T05:00:11;5.30;;;3.63;;
2009;SDS011;1008;47.404;8.502;2022-09-12T05:02:38;7.63;;;3.70;;
2009;SDS011;1008;47.404;8.502;2022-09-12T05:05:05;6.60;;;3.10;;
2009;SDS011;1008;47.404;8.502;2022-09-12T05:07:33;8.73;;;3.47;;
2009;SDS011;1008;47.404;8.502;2022-09-12T05:10:00;4.47;;;3.47;;
2009;SDS011;1008;47.404;8.502;2022-09-12T05:12:28;4.67;;;3.10;;
2009;SDS011;1008;47.404;8.502;2022-09-12T05:14:56;4.57;;;3.23;;
2009;SDS011;1008;47.404;8.502;2022-09-12T05:17:24;4.23;;;3.10;;
2009;SDS011;1008;47.404;8.502;2022-09-12T05:19:50;6.10;;;3.57;;
2009;SDS011;1008;47.404;8.502;2022-09-12T05:22:17;4.27;;;2.80;;
2009;SDS011;1008;47.404;8.502;2022-09-12T05:24:44;6.30;;;3.80;;
2009;SDS011;1008;47.404;8.502;2022-09-12T05:27:12;6.03;;;3.60;;
2009;SDS011;1008;47.404;8.502;2022-09-12T05:29:39;4.00;;;3.30;;
2009;SDS011;1008;47.404;8.502;2022-09-12T05:32:07;9.37;;;4.33;;
2009;SDS011;1008;47.404;8.502;2022-09-12T05:34:37;5.23;;;3.57;;
2009;SDS011;1008;47.404;8.502;2022-09-12T05:37:05;5.87;;;3.50;;
2009;SDS011;1008;47.404;8.502;2022-09-12T05:39:32;6.70;;;4.57;;
2009;SDS011;1008;47.404;8.502;2022-09-12T05:41:58;6.70;;;4.20;;
2009;SDS011;1008;47.404;8.502;2022-09-12T05:44:25;7.00;;;4.73;;
2009;SDS011;1008;47.404;8.502;2022-09-12T05:46:52;8.60;;;4.57;;
2009;SDS011;1008;47.404;8.502;2022-09-12T05:49:19;6.17;;;4.00;;
2009;SDS011;1008;47.404;8.502;2022-09-12T05:51:48;12.70;;;5.60;;
2009;SDS011;1008;47.404;8.502;2022-09-12T05:54:16;5.80;;;4.10;;
2009;SDS011;1008;47.404;8.502;2022-09-12T05:56:45;9.63;;;5.20;;
2009;SDS011;1008;47.404;8.502;2022-09-12T05:59:13;7.20;;;4.80;;
2009;SDS011;1008;47.404;8.502;2022-09-12T06:01:41;8.80;;;4.47;;
2009;SDS011;1008;47.404;8.502;2022-09-12T06:04:08;9.20;;;4.50;;
2009;SDS011;1008;47.404;8.502;2022-09-12T06:06:36;7.20;;;4.70;;
2009;SDS011;1008;47.404;8.502;2022-09-12T06:09:07;7.77;;;4.90;;
2009;SDS011;1008;47.404;8.502;2022-09-12T06:11:35;6.97;;;4.40;;
2009;SDS011;1008;47.404;8.502;2022-09-12T06:14:04;12.40;;;5.10;;
2009;SDS011;1008;47.404;8.502;2022-09-12T06:16:32;8.33;;;4.80;;
2009;SDS011;1008;47.404;8.502;2022-09-12T06:18:59;13.50;;;5.67;;
2009;SDS011;1008;47.404;8.502;2022-09-12T06:21:29;10.63;;;6.03;;
2009;SDS011;1008;47.404;8.502;2022-09-12T06:23:56;9.80;;;6.30;;
2009;SDS011;1008;47.404;8.502;2022-09-12T06:26:25;13.73;;;5.73;;
2009;SDS011;1008;47.404;8.502;2022-09-12T06:28:53;12.10;;;7.00;;
2009;SDS011;1008;47.404;8.502;2022-09-12T06:31:21;17.80;;;8.27;;
2009;SDS011;1008;47.404;8.502;2022-09-12T06:33:50;15.07;;;7.03;;
2009;SDS011;1008;47.404;8.502;2022-09-12T06:36:18;11.67;;;6.60;;
2009;SDS011;1008;47.404;8.502;2022-09-12T06:38:46;9.00;;;4.80;;
2009;SDS011;1008;47.404;8.502;2022-09-12T06:41:18;15.77;;;7.57;;
2009;SDS011;1008;47.404;8.502;2022-09-12T06:43:47;17.20;;;9.40;;
2009;SDS011;1008;47.404;8.502;2022-09-12T06:46:14;11.23;;;6.47;;
2009;SDS011;1008;47.404;8.502;2022-09-12T06:48:40;9.87;;;5.57;;
2009;SDS011;1008;47.404;8.502;2022-09-12T06:51:08;12.20;;;6.27;;
2009;SDS011;1008;47.404;8.502;2022-09-12T06:53:37;10.87;;;6.13;;
2009;SDS011;1008;47.404;8.502;2022-09-12T06:56:04;10.13;;;5.80;;
2009;SDS011;1008;47.404;8.502;2022-09-12T06:58:33;11.67;;;6.60;;
2009;SDS011;1008;47.404;8.502;2022-09-12T07:01:02;8.27;;;5.73;;
2009;SDS011;1008;47.404;8.502;2022-09-12T07:03:30;8.37;;;5.07;;
2009;SDS011;1008;47.404;8.502;2022-09-12T07:06:01;7.33;;;4.93;;
2009;SDS011;1008;47.404;8.502;2022-09-12T07:08:28;7.10;;;5.07;;
2009;SDS011;1008;47.404;8.502;2022-09-12T07:10:56;8.07;;;4.77;;
2009;SDS011;1008;47.404;8.502;2022-09-12T07:13:25;9.47;;;4.53;;
2009;SDS011;1008;47.404;8.502;2022-09-12T07:15:52;9.20;;;5.97;;
2009;SDS011;1008;47.404;8.502;2022-09-12T07:18:20;6.77;;;4.43;;
2009;SDS011;1008;47.404;8.502;2022-09-12T07:20:47;7.87;;;4.90;;
2009;SDS011;1008;47.404;8.502;2022-09-12T07:23:14;7.63;;;5.10;;
2009;SDS011;1008;47.404;8.502;2022-09-12T07:25:41;7.60;;;5.00;;
2009;SDS011;1008;47.404;8.502;2022-09-12T07:28:08;8.47;;;4.53;;
2009;SDS011;1008;47.404;8.502;2022-09-12T07:30:35;7.30;;;4.70;;
2009;SDS011;1008;47.404;8.502;2022-09-12T07:33:03;7.27;;;4.80;;
2009;SDS011;1008;47.404;8.502;2022-09-12T07:35:32;8.93;;;5.30;;
2009;SDS011;1008;47.404;8.502;2022-09-12T07:37:59;5.80;;;4.23;;
2009;SDS011;1008;47.404;8.502;2022-09-12T07:40:26;8.13;;;5.67;;
2009;SDS011;1008;47.404;8.502;2022-09-12T07:42:53;6.43;;;4.40;;
2009;SDS011;1008;47.404;8.502;2022-09-12T07:45:20;6.23;;;4.30;;
2009;SDS011;1008;47.404;8.502;2022-09-12T07:47:47;5.77;;;4.40;;
2009;SDS011;1008;47.404;8.502;2022-09-12T07:50:13;5.33;;;4.00;;
2009;SDS011;1008;47.404;8.502;2022-09-12T07:52:42;8.77;;;4.47;;
2009;SDS011;1008;47.404;8.502;2022-09-12T07:55:08;8.40;;;4.60;;
2009;SDS011;1008;47.404;8.502;2022-09-12T07:57:35;7.30;;;4.27;;
2009;SDS011;1008;47.404;8.502;2022-09-12T08:00:02;5.67;;;4.50;;
2009;SDS011;1008;47.404;8.502;2022-09-12T08:02:30;5.50;;;3.87;;
2009;SDS011;1008;47.404;8.502;2022-09-12T08:04:56;5.90;;;3.93;;
2009;SDS011;1008;47.404;8.502;2022-09-12T08:07:23;7.30;;;3.77;;
2009;SDS011;1008;47.404;8.502;2022-09-12T08:09:51;7.87;;;4.70;;
2009;SDS011;1008;47.404;8.502;2022-09-12T08:12:18;5.93;;;4.50;;
2009;SDS011;1008;47.404;8.502;2022-09-12T08:14:45;13.00;;;4.87;;
2009;SDS011;1008;47.404;8.502;2022-09-12T08:17:12;5.93;;;4.33;;
2009;SDS011;1008;47.404;8.502;2022-09-12T08:19:39;7.40;;;4.50;;
2009;SDS011;1008;47.404;8.502;2022-09-12T08:22:06;8.17;;;4.53;;
2009;SDS011;1008;47.404;8.502;2022-09-12T08:24:32;6.80;;;3.90;;
2009;SDS011;1008;47.404;8.502;2022-09-12T08:27:00;6.50;;;3.83;;
2009;SDS011;1008;47.404;8.502;2022-09-12T08:29:27;6.77;;;4.30;;
2009;SDS011;1008;47.404;8.502;2022-09-12T08:31:54;7.30;;;4.20;;
2009;SDS011;1008;47.404;8.502;2022-09-12T08:34:21;7.00;;;4.40;;
2009;SDS011;1008;47.404;8.502;2022-09-12T08:36:49;4.83;;;4.10;;
2009;SDS011;1008;47.404;8.502;2022-09-12T08:39:18;5.63;;;3.60;;
2009;SDS011;1008;47.404;8.502;2022-09-12T08:41:46;5.57;;;3.83;;
2009;SDS011;1008;47.404;8.502;2022-09-12T08:47:16;5.57;;;3.83;;
2009;SDS011;1008;47.404;8.502;2022-09-12T08:49:47;7.90;;;4.10;;
2009;SDS011;1008;47.404;8.502;2022-09-12T08:52:19;5.77;;;3.60;;
2009;SDS011;1008;47.404;8.502;2022-09-12T08:54:51;7.10;;;3.60;;
2009;SDS011;1008;47.404;8.502;2022-09-12T08:57:19;7.80;;;3.97;;
2009;SDS011;1008;47.404;8.502;2022-09-12T08:59:49;6.50;;;4.07;;
2009;SDS011;1008;47.404;8.502;2022-09-12T09:02:24;7.13;;;4.13;;
2009;SDS011;1008;47.404;8.502;2022-09-12T09:05:06;9.03;;;3.93;;
2009;SDS011;1008;47.404;8.502;2022-09-12T09:07:47;5.63;;;3.70;;
2009;SDS011;1008;47.404;8.502;2022-09-12T09:10:29;5.30;;;3.63;;
2009;SDS011;1008;47.404;8.502;2022-09-12T09:13:01;5.33;;;3.57;;
2009;SDS011;1008;47.404;8.502;2022-09-12T09:15:42;10.07;;;4.87;;
2009;SDS011;1008;47.404;8.502;2022-09-12T09:18:18;5.17;;;3.80;;
2009;SDS011;1008;47.404;8.502;2022-09-12T09:20:48;4.80;;;3.00;;
2009;SDS011;1008;47.404;8.502;2022-09-12T09:23:19;5.67;;;3.47;;
2009;SDS011;1008;47.404;8.502;2022-09-12T09:25:51;4.93;;;3.63;;
2009;SDS011;1008;47.404;8.502;2022-09-12T09:28:24;5.37;;;3.40;;
2009;SDS011;1008;47.404;8.502;2022-09-12T09:30:59;4.37;;;3.20;;
2009;SDS011;1008;47.404;8.502;2022-09-12T09:33:27;5.20;;;3.90;;
2009;SDS011;1008;47.404;8.502;2022-09-12T09:36:00;5.27;;;3.60;;
2009;SDS011;1008;47.404;8.502;2022-09-12T09:38:34;7.53;;;3.87;;
2009;SDS011;1008;47.404;8.502;2022-09-12T09:41:16;4.50;;;3.17;;
2009;SDS011;1008;47.404;8.502;2022-09-12T09:43:51;4.00;;;2.90;;
2009;SDS011;1008;47.404;8.502;2022-09-12T09:46:19;4.80;;;3.40;;
2009;SDS011;1008;47.404;8.502;2022-09-12T09:48:46;4.57;;;2.97;;
2009;SDS011;1008;47.404;8.502;2022-09-12T09:51:15;4.27;;;3.30;;
2009;SDS011;1008;47.404;8.502;2022-09-12T09:53:51;8.43;;;3.50;;
2009;SDS011;1008;47.404;8.502;2022-09-12T09:56:25;4.47;;;2.90;;
2009;SDS011;1008;47.404;8.502;2022-09-12T09:58:54;5.70;;;3.33;;
2009;SDS011;1008;47.404;8.502;2022-09-12T10:01:22;4.67;;;2.80;;
2009;SDS011;1008;47.404;8.502;2022-09-12T10:03:51;3.80;;;2.93;;
2009;SDS011;1008;47.404;8.502;2022-09-12T10:06:21;4.37;;;3.23;;
2009;SDS011;1008;47.404;8.502;2022-09-12T10:08:50;5.10;;;3.20;;
2009;SDS011;1008;47.404;8.502;2022-09-12T10:11:30;4.13;;;3.00;;
2009;SDS011;1008;47.404;8.502;2022-09-12T10:13:58;3.50;;;2.73;;
2009;SDS011;1008;47.404;8.502;2022-09-12T10:16:27;4.70;;;3.17;;
2009;SDS011;1008;47.404;8.502;2022-09-12T10:18:56;2.57;;;2.13;;
2009;SDS011;1008;47.404;8.502;2022-09-12T10:21:26;2.73;;;1.80;;
2009;SDS011;1008;47.404;8.502;2022-09-12T10:24:00;2.10;;;1.90;;
2009;SDS011;1008;47.404;8.502;2022-09-12T10:26:31;2.20;;;1.90;;
2009;SDS011;1008;47.404;8.502;2022-09-12T10:29:02;2.47;;;2.00;;
2009;SDS011;1008;47.404;8.502;2022-09-12T10:31:41;4.50;;;2.90;;
2009;SDS011;1008;47.404;8.502;2022-09-12T10:34:18;2.83;;;2.20;;
2009;SDS011;1008;47.404;8.502;2022-09-12T10:36:59;2.00;;;1.70;;
2009;SDS011;1008;47.404;8.502;2022-09-12T10:39:30;2.50;;;2.07;;
2009;SDS011;1008;47.404;8.502;2022-09-12T10:41:58;2.50;;;2.13;;
2009;SDS011;1008;47.404;8.502;2022-09-12T10:44:26;2.13;;;1.93;;
2009;SDS011;1008;47.404;8.502;2022-09-12T10:46:56;2.20;;;2.00;;
2009;SDS011;1008;47.404;8.502;2022-09-12T10:49:25;3.30;;;2.30;;
2009;SDS011;1008;47.404;8.502;2022-09-12T10:51:54;2.30;;;1.90;;
2009;SDS011;1008;47.404;8.502;2022-09-12T10:54:25;5.90;;;2.50;;
2009;SDS011;1008;47.404;8.502;2022-09-12T10:57:00;2.50;;;2.13;;
2009;SDS011;1008;47.404;8.502;2022-09-12T10:59:57;3.17;;;2.40;;
2009;SDS011;1008;47.404;8.502;2022-09-12T11:02:36;2.63;;;2.23;;
2009;SDS011;1008;47.404;8.502;2022-09-12T11:05:21;2.40;;;2.10;;
2009;SDS011;1008;47.404;8.502;2022-09-12T11:08:11;2.80;;;2.20;;
2009;SDS011;1008;47.404;8.502;2022-09-12T11:10:47;2.50;;;2.20;;
2009;SDS011;1008;47.404;8.502;2022-09-12T11:13:24;2.93;;;2.20;;
2009;SDS011;1008;47.404;8.502;2022-09-12T11:16:11;3.20;;;2.33;;
2009;SDS011;1008;47.404;8.502;2022-09-12T11:18:58;2.77;;;2.43;;
2009;SDS011;1008;47.404;8.502;2022-09-12T11:24:40;3.17;;;2.00;;
2009;SDS011;1008;47.404;8.502;2022-09-12T11:27:26;6.77;;;2.33;;
2009;SDS011;1008;47.404;8.502;2022-09-12T11:30:03;3.10;;;2.03;;
2009;SDS011;1008;47.404;8.502;2022-09-12T11:32:46;2.30;;;1.93;;
2009;SDS011;1008;47.404;8.502;2022-09-12T11:35:31;2.60;;;2.00;;
2009;SDS011;1008;47.404;8.502;2022-09-12T11:38:06;2.30;;;2.10;;
2009;SDS011;1008;47.404;8.502;2022-09-12T11:40:43;3.87;;;2.43;;
2009;SDS011;1008;47.404;8.502;2022-09-12T11:43:19;3.63;;;2.00;;
2009;SDS011;1008;47.404;8.502;2022-09-12T11:45:50;3.80;;;2.37;;
2009;SDS011;1008;47.404;8.502;2022-09-12T11:48:19;2.83;;;2.30;;
2009;SDS011;1008;47.404;8.502;2022-09-12T11:50:54;2.37;;;2.17;;
2009;SDS011;1008;47.404;8.502;2022-09-12T11:53:23;2.17;;;1.97;;
2009;SDS011;1008;47.404;8.502;2022-09-12T11:55:55;1.93;;;1.67;;
2009;SDS011;1008;47.404;8.502;2022-09-12T11:58:25;2.83;;;1.90;;
2009;SDS011;1008;47.404;8.502;2022-09-12T12:00:54;4.67;;;2.50;;
2009;SDS011;1008;47.404;8.502;2022-09-12T12:03:25;2.20;;;1.60;;
2009;SDS011;1008;47.404;8.502;2022-09-12T12:06:00;3.10;;;2.10;;
2009;SDS011;1008;47.404;8.502;2022-09-12T12:08:31;2.00;;;1.80;;
2009;SDS011;1008;47.404;8.502;2022-09-12T12:11:04;2.20;;;1.90;;
2009;SDS011;1008;47.404;8.502;2022-09-12T12:13:32;3.43;;;2.10;;
2009;SDS011;1008;47.404;8.502;2022-09-12T12:16:03;3.20;;;1.77;;
2009;SDS011;1008;47.404;8.502;2022-09-12T12:18:34;2.20;;;1.80;;
2009;SDS011;1008;47.404;8.502;2022-09-12T12:21:19;9.53;;;2.37;;
2009;SDS011;1008;47.404;8.502;2022-09-12T12:24:09;3.93;;;1.80;;
2009;SDS011;1008;47.404;8.502;2022-09-12T12:26:43;2.67;;;1.57;;
2009;SDS011;1008;47.404;8.502;2022-09-12T12:29:34;2.13;;;1.93;;
2009;SDS011;1008;47.404;8.502;2022-09-12T12:32:22;1.57;;;1.47;;
2009;SDS011;1008;47.404;8.502;2022-09-12T12:34:50;2.80;;;2.30;;
2009;SDS011;1008;47.404;8.502;2022-09-12T12:37:53;3.00;;;2.30;;
2009;SDS011;1008;47.404;8.502;2022-09-12T12:40:24;2.00;;;1.80;;
2009;SDS011;1008;47.404;8.502;2022-09-12T12:42:57;3.27;;;2.37;;
2009;SDS011;1008;47.404;8.502;2022-09-12T12:51:29;2.00;;;1.90;;
2009;SDS011;1008;47.404;8.502;2022-09-12T12:54:25;2.00;;;1.80;;
2009;SDS011;1008;47.404;8.502;2022-09-12T12:57:05;2.00;;;1.80;;
2009;SDS011;1008;47.404;8.502;2022-09-12T12:59:46;3.20;;;2.00;;
2009;SDS011;1008;47.404;8.502;2022-09-12T13:02:17;1.80;;;1.70;;
2009;SDS011;1008;47.404;8.502;2022-09-12T13:04:47;1.83;;;1.57;;
2009;SDS011;1008;47.404;8.502;2022-09-12T13:07:19;2.13;;;1.93;;
2009;SDS011;1008;47.404;8.502;2022-09-12T13:09:54;1.90;;;1.80;;
2009;SDS011;1008;47.404;8.502;2022-09-12T13:12:22;1.83;;;1.70;;
2009;SDS011;1008;47.404;8.502;2022-09-12T13:14:52;2.67;;;1.93;;
2009;SDS011;1008;47.404;8.502;2022-09-12T13:17:22;1.87;;;1.60;;
2009;SDS011;1008;47.404;8.502;2022-09-12T13:19:53;2.80;;;1.57;;
2009;SDS011;1008;47.404;8.502;2022-09-12T13:22:37;2.93;;;1.90;;
2009;SDS011;1008;47.404;8.502;2022-09-12T13:25:22;2.70;;;2.07;;
2009;SDS011;1008;47.404;8.502;2022-09-12T13:28:04;3.03;;;1.70;;
2009;SDS011;1008;47.404;8.502;2022-09-12T13:30:40;1.97;;;1.77;;
2009;SDS011;1008;47.404;8.502;2022-09-12T13:33:13;1.87;;;1.63;;
2009;SDS011;1008;47.404;8.502;2022-09-12T13:35:57;1.80;;;1.53;;
2009;SDS011;1008;47.404;8.502;2022-09-12T13:39:05;3.23;;;1.90;;
2009;SDS011;1008;47.404;8.502;2022-09-12T13:41:52;3.30;;;2.00;;
2009;SDS011;1008;47.404;8.502;2022-09-12T13:44:40;2.57;;;1.90;;
2009;SDS011;1008;47.404;8.502;2022-09-12T13:47:09;2.53;;;1.93;;
2009;SDS011;1008;47.404;8.502;2022-09-12T13:49:41;1.60;;;1.40;;
2009;SDS011;1008;47.404;8.502;2022-09-12T13:52:13;2.13;;;1.87;;
2009;SDS011;1008;47.404;8.502;2022-09-12T13:54:43;2.80;;;1.73;;
2009;SDS011;1008;47.404;8.502;2022-09-12T13:57:27;1.60;;;1.50;;
2009;SDS011;1008;47.404;8.502;2022-09-12T13:59:57;1.90;;;1.70;;
2009;SDS011;1008;47.404;8.502;2022-09-12T14:02:26;2.23;;;1.80;;
2009;SDS011;1008;47.404;8.502;2022-09-12T14:04:55;2.10;;;1.83;;
2009;SDS011;1008;47.404;8.502;2022-09-12T14:07:41;6.80;;;2.00;;
2009;SDS011;1008;47.404;8.502;2022-09-12T14:10:19;2.40;;;2.00;;
2009;SDS011;1008;47.404;8.502;2022-09-12T14:12:54;1.67;;;1.30;;
2009;SDS011;1008;47.404;8.502;2022-09-12T14:15:22;1.60;;;1.50;;
2009;SDS011;1008;47.404;8.502;2022-09-12T14:17:52;1.87;;;1.43;;
2009;SDS011;1008;47.404;8.502;2022-09-12T14:20:22;2.23;;;1.73;;
2009;SDS011;1008;47.404;8.502;2022-09-12T14:22:50;2.00;;;1.80;;
2009;SDS011;1008;47.404;8.502;2022-09-12T14:25:18;1.53;;;1.30;;
2009;SDS011;1008;47.404;8.502;2022-09-12T14:27:47;3.13;;;1.30;;
2009;SDS011;1008;47.404;8.502;2022-09-12T14:30:20;1.43;;;1.33;;
2009;SDS011;1008;47.404;8.502;2022-09-12T14:33:03;1.73;;;1.40;;
2009;SDS011;1008;47.404;8.502;2022-09-12T14:35:43;1.77;;;1.50;;
2009;SDS011;1008;47.404;8.502;2022-09-12T14:38:12;1.60;;;1.40;;
2009;SDS011;1008;47.404;8.502;2022-09-12T14:40:47;1.97;;;1.77;;
2009;SDS011;1008;47.404;8.502;2022-09-12T14:43:17;1.83;;;1.50;;
2009;SDS011;1008;47.404;8.502;2022-09-12T14:45:52;1.93;;;1.73;;
2009;SDS011;1008;47.404;8.502;2022-09-12T14:48:21;1.53;;;1.30;;
2009;SDS011;1008;47.404;8.502;2022-09-12T14:50:49;1.50;;;1.30;;
2009;SDS011;1008;47.404;8.502;2022-09-12T14:53:22;1.77;;;1.43;;
2009;SDS011;1008;47.404;8.502;2022-09-12T14:55:56;1.67;;;1.40;;
2009;SDS011;1008;47.404;8.502;2022-09-12T14:58:30;1.80;;;1.60;;
2009;SDS011;1008;47.404;8.502;2022-09-12T15:01:00;1.40;;;1.30;;
2009;SDS011;1008;47.404;8.502;2022-09-12T15:03:30;1.53;;;1.37;;
2009;SDS011;1008;47.404;8.502;2022-09-12T15:05:58;1.40;;;1.30;;
2009;SDS011;1008;47.404;8.502;2022-09-12T15:08:27;1.40;;;1.30;;
2009;SDS011;1008;47.404;8.502;2022-09-12T15:10:54;1.70;;;1.53;;
2009;SDS011;1008;47.404;8.502;2022-09-12T15:13:22;2.90;;;1.50;;
2009;SDS011;1008;47.404;8.502;2022-09-12T15:15:51;1.47;;;1.30;;
2009;SDS011;1008;47.404;8.502;2022-09-12T15:18:21;1.90;;;1.47;;
2009;SDS011;1008;47.404;8.502;2022-09-12T15:20:50;1.50;;;1.40;;
2009;SDS011;1008;47.404;8.502;2022-09-12T15:23:22;1.80;;;1.70;;
2009;SDS011;1008;47.404;8.502;2022-09-12T15:25:57;1.73;;;1.40;;
2009;SDS011;1008;47.404;8.502;2022-09-12T15:28:24;1.40;;;1.30;;
2009;SDS011;1008;47.404;8.502;2022-09-12T15:30:52;2.50;;;1.70;;
2009;SDS011;1008;47.404;8.502;2022-09-12T15:33:22;3.43;;;1.50;;
2009;SDS011;1008;47.404;8.502;2022-09-12T15:35:50;1.83;;;1.70;;
2009;SDS011;1008;47.404;8.502;2022-09-12T15:38:18;1.87;;;1.37;;
2009;SDS011;1008;47.404;8.502;2022-09-12T15:40:48;1.40;;;1.30;;
2009;SDS011;1008;47.404;8.502;2022-09-12T15:43:18;1.73;;;1.40;;
2009;SDS011;1008;47.404;8.502;2022-09-12T15:45:45;1.50;;;1.40;;
2009;SDS011;1008;47.404;8.502;2022-09-12T15:48:13;2.13;;;1.70;;
2009;SDS011;1008;47.404;8.502;2022-09-12T15:50:41;1.50;;;1.40;;
2009;SDS011;1008;47.404;8.502;2022-09-12T15:53:09;2.00;;;1.43;;
2009;SDS011;1008;47.404;8.502;2022-09-12T15:55:39;1.80;;;1.43;;
2009;SDS011;1008;47.404;8.502;2022-09-12T15:58:06;1.90;;;1.53;;
2009;SDS011;1008;47.404;8.502;2022-09-12T16:00:33;1.63;;;1.53;;